sensor_id;sensor_type;location;lat;lon;timestamp;pressure;altitude;pressure_sealevel;temperature;humidity
31595;BME280;18200;48.726;8.892;2022-12-07T00:00:13;96764.06;;;15.38;42.46
31595;BME280;18200;48.726;8.892;2022-12-07T00:04:14;96757.31;;;14.65;43.93
31595;BME280;18200;48.726;8.892;2022-12-07T00:08:15;96760.38;;;14.50;44.11
31595;BME280;18200;48.726;8.892;2022-12-07T00:12:15;96759.84;;;14.27;44.26
31595;BME280;18200;48.726;8.892;2022-12-07T00:16:16;96752.41;;;15.03;43.22
31595;BME280;18200;48.726;8.892;2022-12-07T00:20:16;96748.16;;;15.05;42.82
31595;BME280;18200;48.726;8.892;2022-12-07T00:24:17;96759.94;;;14.41;43.81
31595;BME280;18200;48.726;8.892;2022-12-07T00:28:17;96744.19;;;14.60;43.22
31595;BME280;18200;48.726;8.892;2022-12-07T00:32:17;96746.00;;;14.32;43.83
31595;BME280;18200;48.726;8.892;2022-12-07T00:36:19;96753.22;;;14.21;45.29
31595;BME280;18200;48.726;8.892;2022-12-07T00:40:20;96749.09;;;13.72;45.61
31595;BME280;18200;48.726;8.892;2022-12-07T00:44:20;96745.25;;;14.42;44.45
31595;BME280;18200;48.726;8.892;2022-12-07T00:48:21;96745.25;;;14.42;43.58
31595;BME280;18200;48.726;8.892;2022-12-07T00:52:22;96750.06;;;14.87;43.26
31595;BME280;18200;48.726;8.892;2022-12-07T00:56:23;96741.97;;;15.08;42.38
31595;BME280;18200;48.726;8.892;2022-12-07T01:00:23;96739.63;;;14.89;42.53
31595;BME280;18200;48.726;8.892;2022-12-07T01:04:24;96757.75;;;14.71;43.54
31595;BME280;18200;48.726;8.892;2022-12-07T01:08:24;96746.59;;;14.97;42.77
31595;BME280;18200;48.726;8.892;2022-12-07T01:12:25;96752.38;;;14.89;42.86
31595;BME280;18200;48.726;8.892;2022-12-07T01:16:26;96758.19;;;14.94;42.50
31595;BME280;18200;48.726;8.892;2022-12-07T01:20:26;96749.75;;;15.20;42.06
31595;BME280;18200;48.726;8.892;2022-12-07T01:24:27;96755.91;;;15.31;41.81
31595;BME280;18200;48.726;8.892;2022-12-07T01:28:27;96753.59;;;15.40;41.53
31595;BME280;18200;48.726;8.892;2022-12-07T01:32:28;96758.16;;;14.87;42.27
31595;BME280;18200;48.726;8.892;2022-12-07T01:36:30;96758.22;;;15.08;41.80
31595;BME280;18200;48.726;8.892;2022-12-07T01:40:30;96762.34;;;14.63;42.76
31595;BME280;18200;48.726;8.892;2022-12-07T01:44:30;96771.88;;;14.36;43.47
31595;BME280;18200;48.726;8.892;2022-12-07T01:48:34;96773.78;;;14.32;43.62
31595;BME280;18200;48.726;8.892;2022-12-07T01:52:36;96767.41;;;14.03;43.72
31595;BME280;18200;48.726;8.892;2022-12-07T01:56:37;96764.56;;;13.82;43.86
31595;BME280;18200;48.726;8.892;2022-12-07T02:00:40;96755.41;;;13.97;43.77
31595;BME280;18200;48.726;8.892;2022-12-07T02:04:40;96761.13;;;13.85;44.08
31595;BME280;18200;48.726;8.892;2022-12-07T02:08:41;96769.81;;;14.16;43.80
31595;BME280;18200;48.726;8.892;2022-12-07T02:12:42;96768.94;;;14.80;42.79
31595;BME280;18200;48.726;8.892;2022-12-07T02:16:51;96770.91;;;14.83;41.93
31595;BME280;18200;48.726;8.892;2022-12-07T02:33:15;96761.25;;;14.86;41.26
31595;BME280;18200;48.726;8.892;2022-12-07T02:37:25;96760.41;;;14.64;42.32
31595;BME280;18200;48.726;8.892;2022-12-07T02:41:28;96757.06;;;15.09;42.15
31595;BME280;18200;48.726;8.892;2022-12-07T02:45:30;96743.16;;;15.07;41.92
31595;BME280;18200;48.726;8.892;2022-12-07T02:49:31;96750.50;;;15.03;41.85
31595;BME280;18200;48.726;8.892;2022-12-07T02:53:36;96742.78;;;15.33;41.05
31595;BME280;18200;48.726;8.892;2022-12-07T02:58:02;96752.56;;;14.38;42.77
31595;BME280;18200;48.726;8.892;2022-12-07T03:06:20;96732.69;;;15.02;41.48
31595;BME280;18200;48.726;8.892;2022-12-07T03:10:34;96733.50;;;15.13;40.89
31595;BME280;18200;48.726;8.892;2022-12-07T03:14:43;96736.56;;;15.19;40.75
31595;BME280;18200;48.726;8.892;2022-12-07T03:22:48;96730.00;;;15.34;40.83
31595;BME280;18200;48.726;8.892;2022-12-07T03:26:51;96731.06;;;14.62;41.80
31595;BME280;18200;48.726;8.892;2022-12-07T03:30:55;96726.81;;;14.65;42.02
31595;BME280;18200;48.726;8.892;2022-12-07T03:35:02;96734.25;;;15.17;41.75
31595;BME280;18200;48.726;8.892;2022-12-07T03:43:07;96722.59;;;14.74;41.54
31595;BME280;18200;48.726;8.892;2022-12-07T03:51:46;96732.72;;;15.23;41.09
31595;BME280;18200;48.726;8.892;2022-12-07T03:55:50;96730.41;;;15.32;41.10
31595;BME280;18200;48.726;8.892;2022-12-07T03:59:51;96723.81;;;15.33;41.16
31595;BME280;18200;48.726;8.892;2022-12-07T04:03:51;96722.28;;;15.25;41.05
31595;BME280;18200;48.726;8.892;2022-12-07T04:07:52;96721.78;;;14.60;41.75
31595;BME280;18200;48.726;8.892;2022-12-07T04:11:52;96717.19;;;14.85;41.66
31595;BME280;18200;48.726;8.892;2022-12-07T04:15:52;96707.72;;;14.26;42.59
31595;BME280;18200;48.726;8.892;2022-12-07T04:19:53;96707.13;;;14.68;41.80
31595;BME280;18200;48.726;8.892;2022-12-07T04:23:53;96715.25;;;14.75;42.03
31595;BME280;18200;48.726;8.892;2022-12-07T04:27:53;96721.78;;;14.63;42.34
31595;BME280;18200;48.726;8.892;2022-12-07T04:31:54;96723.31;;;14.54;42.13
31595;BME280;18200;48.726;8.892;2022-12-07T04:35:54;96707.91;;;14.75;41.46
31595;BME280;18200;48.726;8.892;2022-12-07T04:39:54;96706.34;;;14.78;40.76
31595;BME280;18200;48.726;8.892;2022-12-07T04:43:55;96690.69;;;14.12;42.26
31595;BME280;18200;48.726;8.892;2022-12-07T04:47:56;96693.69;;;13.99;42.62
31595;BME280;18200;48.726;8.892;2022-12-07T04:51:56;96689.06;;;14.03;42.69
31595;BME280;18200;48.726;8.892;2022-12-07T04:55:56;96684.41;;;13.93;42.45
31595;BME280;18200;48.726;8.892;2022-12-07T04:59:56;96672.88;;;13.96;42.47
31595;BME280;18200;48.726;8.892;2022-12-07T05:03:57;96684.44;;;14.00;42.06
31595;BME280;18200;48.726;8.892;2022-12-07T05:07:57;96685.09;;;13.76;42.49
31595;BME280;18200;48.726;8.892;2022-12-07T05:11:57;96676.97;;;13.73;41.48
31595;BME280;18200;48.726;8.892;2022-12-07T05:15:58;96678.13;;;12.77;43.03
31595;BME280;18200;48.726;8.892;2022-12-07T05:19:58;96685.09;;;13.22;41.85
31595;BME280;18200;48.726;8.892;2022-12-07T05:23:58;96685.03;;;13.15;41.95
31595;BME280;18200;48.726;8.892;2022-12-07T05:27:59;96688.94;;;13.21;42.62
31595;BME280;18200;48.726;8.892;2022-12-07T05:31:59;96701.13;;;12.01;45.08
31595;BME280;18200;48.726;8.892;2022-12-07T05:35:59;96707.91;;;12.55;43.35
31595;BME280;18200;48.726;8.892;2022-12-07T05:40:05;96699.25;;;12.05;44.10
31595;BME280;18200;48.726;8.892;2022-12-07T05:44:06;96705.63;;;12.57;42.49
31595;BME280;18200;48.726;8.892;2022-12-07T05:48:06;96703.50;;;12.73;42.93
31595;BME280;18200;48.726;8.892;2022-12-07T05:52:06;96708.69;;;12.55;42.73
31595;BME280;18200;48.726;8.892;2022-12-07T05:56:07;96712.06;;;12.82;41.73
31595;BME280;18200;48.726;8.892;2022-12-07T06:00:07;96705.63;;;12.57;43.10
31595;BME280;18200;48.726;8.892;2022-12-07T06:04:12;96703.53;;;12.76;43.12
31595;BME280;18200;48.726;8.892;2022-12-07T06:08:12;96712.66;;;12.65;42.84
31595;BME280;18200;48.726;8.892;2022-12-07T06:12:14;96715.56;;;12.49;42.85
31595;BME280;18200;48.726;8.892;2022-12-07T06:16:33;96705.78;;;12.71;41.68
31595;BME280;18200;48.726;8.892;2022-12-07T06:20:34;96707.28;;;12.65;43.02
31595;BME280;18200;48.726;8.892;2022-12-07T06:24:34;96716.91;;;12.32;43.48
31595;BME280;18200;48.726;8.892;2022-12-07T06:28:34;96723.78;;;12.60;42.72
31595;BME280;18200;48.726;8.892;2022-12-07T06:32:36;96727.84;;;12.80;43.12
31595;BME280;18200;48.726;8.892;2022-12-07T06:36:36;96722.56;;;12.90;42.64
31595;BME280;18200;48.726;8.892;2022-12-07T06:40:37;96731.97;;;11.55;44.97
31595;BME280;18200;48.726;8.892;2022-12-07T06:44:37;96727.22;;;12.27;42.87
31595;BME280;18200;48.726;8.892;2022-12-07T06:48:38;96727.50;;;12.85;42.79
31595;BME280;18200;48.726;8.892;2022-12-07T06:52:38;96734.44;;;12.86;42.50
31595;BME280;18200;48.726;8.892;2022-12-07T06:56:38;96735.69;;;12.59;42.70
31595;BME280;18200;48.726;8.892;2022-12-07T07:00:38;96730.19;;;12.18;42.89
31595;BME280;18200;48.726;8.892;2022-12-07T07:04:39;96723.91;;;12.07;44.28
31595;BME280;18200;48.726;8.892;2022-12-07T07:08:40;96723.03;;;12.29;43.21
31595;BME280;18200;48.726;8.892;2022-12-07T07:12:40;96729.66;;;12.69;42.43
31595;BME280;18200;48.726;8.892;2022-12-07T07:16:40;96718.28;;;12.86;41.73
31595;BME280;18200;48.726;8.892;2022-12-07T07:20:41;96723.78;;;13.00;41.75
31595;BME280;18200;48.726;8.892;2022-12-07T07:24:41;96724.81;;;12.18;42.95
31595;BME280;18200;48.726;8.892;2022-12-07T07:28:41;96716.69;;;12.81;42.03
31595;BME280;18200;48.726;8.892;2022-12-07T07:32:42;96725.31;;;12.61;42.33
31595;BME280;18200;48.726;8.892;2022-12-07T07:36:42;96729.84;;;12.53;42.84
31595;BME280;18200;48.726;8.892;2022-12-07T07:40:43;96725.31;;;12.61;42.87
31595;BME280;18200;48.726;8.892;2022-12-07T07:44:43;96725.88;;;12.10;44.62
31595;BME280;18200;48.726;8.892;2022-12-07T07:48:44;96735.50;;;12.78;43.25
31595;BME280;18200;48.726;8.892;2022-12-07T07:52:44;96733.88;;;11.77;44.36
31595;BME280;18200;48.726;8.892;2022-12-07T07:56:45;96733.13;;;12.06;43.48
31595;BME280;18200;48.726;8.892;2022-12-07T08:00:46;96736.53;;;11.51;44.28
31595;BME280;18200;48.726;8.892;2022-12-07T08:04:47;96730.84;;;12.41;42.04
31595;BME280;18200;48.726;8.892;2022-12-07T08:08:48;96722.91;;;12.89;40.70
31595;BME280;18200;48.726;8.892;2022-12-07T08:12:48;96736.53;;;11.51;42.49
31595;BME280;18200;48.726;8.892;2022-12-07T08:17:07;96729.53;;;12.58;40.92
31595;BME280;18200;48.726;8.892;2022-12-07T08:21:12;96732.66;;;12.30;40.19
31595;BME280;18200;48.726;8.892;2022-12-07T08:25:13;96742.84;;;12.77;39.83
31595;BME280;18200;48.726;8.892;2022-12-07T08:29:14;96747.38;;;13.50;38.82
31595;BME280;18200;48.726;8.892;2022-12-07T08:33:15;96750.47;;;13.52;37.92
31595;BME280;18200;48.726;8.892;2022-12-07T08:37:16;96743.66;;;13.69;37.37
31595;BME280;18200;48.726;8.892;2022-12-07T08:41:16;96749.94;;;13.83;38.34
31595;BME280;18200;48.726;8.892;2022-12-07T08:45:19;96753.75;;;13.75;37.89
31595;BME280;18200;48.726;8.892;2022-12-07T08:49:27;96759.50;;;13.70;40.60
31595;BME280;18200;48.726;8.892;2022-12-07T08:53:31;96746.47;;;13.32;40.91
31595;BME280;18200;48.726;8.892;2022-12-07T08:57:33;96749.88;;;13.73;38.94
31595;BME280;18200;48.726;8.892;2022-12-07T09:01:35;96754.38;;;13.58;39.00
31595;BME280;18200;48.726;8.892;2022-12-07T09:05:45;96755.41;;;13.97;37.64
31595;BME280;18200;48.726;8.892;2022-12-07T09:09:47;96752.84;;;13.61;38.01
31595;BME280;18200;48.726;8.892;2022-12-07T09:13:47;96754.97;;;14.50;37.56
31595;BME280;18200;48.726;8.892;2022-12-07T09:17:48;96747.75;;;15.00;36.33
31595;BME280;18200;48.726;8.892;2022-12-07T09:21:48;96756.94;;;13.91;37.08
31595;BME280;18200;48.726;8.892;2022-12-07T09:25:48;96756.13;;;13.87;37.64
31595;BME280;18200;48.726;8.892;2022-12-07T09:29:48;96756.22;;;14.01;37.47
31595;BME280;18200;48.726;8.892;2022-12-07T09:33:55;96741.84;;;14.59;36.84
31595;BME280;18200;48.726;8.892;2022-12-07T09:37:56;96748.88;;;14.02;37.97
31595;BME280;18200;48.726;8.892;2022-12-07T09:41:56;96751.19;;;14.83;37.07
31595;BME280;18200;48.726;8.892;2022-12-07T09:45:57;96745.75;;;14.72;37.29
31595;BME280;18200;48.726;8.892;2022-12-07T09:50:00;96736.94;;;15.10;36.52
31595;BME280;18200;48.726;8.892;2022-12-07T09:54:07;96735.00;;;14.90;37.18
31595;BME280;18200;48.726;8.892;2022-12-07T09:58:16;96733.44;;;14.85;36.33
31595;BME280;18200;48.726;8.892;2022-12-07T10:06:25;96725.97;;;13.78;38.53
31595;BME280;18200;48.726;8.892;2022-12-07T10:10:28;96724.38;;;14.32;38.28
31595;BME280;18200;48.726;8.892;2022-12-07T10:14:30;96721.56;;;13.05;40.32
31595;BME280;18200;48.726;8.892;2022-12-07T10:18:38;96720.78;;;14.14;38.66
31595;BME280;18200;48.726;8.892;2022-12-07T10:22:38;96717.66;;;14.01;38.46
31595;BME280;18200;48.726;8.892;2022-12-07T10:26:53;96711.34;;;13.79;39.41
31595;BME280;18200;48.726;8.892;2022-12-07T10:30:56;96701.50;;;14.19;38.88
31595;BME280;18200;48.726;8.892;2022-12-07T10:39:29;96709.44;;;13.83;39.43
31595;BME280;18200;48.726;8.892;2022-12-07T10:43:46;96703.25;;;14.76;37.66
31595;BME280;18200;48.726;8.892;2022-12-07T10:52:18;96705.53;;;12.83;41.98
31595;BME280;18200;48.726;8.892;2022-12-07T11:00:37;96690.94;;;13.31;40.87
31595;BME280;18200;48.726;8.892;2022-12-07T11:22:01;96668.16;;;13.79;40.85
31595;BME280;18200;48.726;8.892;2022-12-07T11:30:19;96653.81;;;13.68;41.02
31595;BME280;18200;48.726;8.892;2022-12-07T11:34:24;96655.97;;;14.21;41.06
31595;BME280;18200;48.726;8.892;2022-12-07T11:38:35;96649.19;;;14.58;40.02
31595;BME280;18200;48.726;8.892;2022-12-07T11:42:39;96646.63;;;14.00;42.01
31595;BME280;18200;48.726;8.892;2022-12-07T11:50:46;96645.16;;;13.42;42.55
31595;BME280;18200;48.726;8.892;2022-12-07T11:54:47;96639.13;;;14.55;41.12
31595;BME280;18200;48.726;8.892;2022-12-07T11:59:06;96628.28;;;14.45;41.64
31595;BME280;18200;48.726;8.892;2022-12-07T12:03:15;96631.81;;;13.63;42.39
31595;BME280;18200;48.726;8.892;2022-12-07T12:07:21;96635.91;;;14.22;41.33
31595;BME280;18200;48.726;8.892;2022-12-07T12:11:32;96626.94;;;13.96;41.19
31595;BME280;18200;48.726;8.892;2022-12-07T12:15:42;96637.84;;;13.42;42.05
31595;BME280;18200;48.726;8.892;2022-12-07T12:24:08;96620.22;;;13.62;42.40
31595;BME280;18200;48.726;8.892;2022-12-07T12:28:24;96629.00;;;12.98;44.01
31595;BME280;18200;48.726;8.892;2022-12-07T12:32:35;96625.50;;;12.50;44.99
31595;BME280;18200;48.726;8.892;2022-12-07T12:40:41;96622.34;;;12.81;44.29
31595;BME280;18200;48.726;8.892;2022-12-07T12:44:41;96614.06;;;13.65;43.36
31595;BME280;18200;48.726;8.892;2022-12-07T12:53:24;96611.53;;;14.04;42.18
31595;BME280;18200;48.726;8.892;2022-12-07T12:57:29;96611.94;;;12.83;43.75
31595;BME280;18200;48.726;8.892;2022-12-07T13:05:36;96604.69;;;12.91;43.63
31595;BME280;18200;48.726;8.892;2022-12-07T13:09:37;96598.69;;;13.80;41.97
31595;BME280;18200;48.726;8.892;2022-12-07T13:13:42;96593.59;;;13.57;42.45
31595;BME280;18200;48.726;8.892;2022-12-07T13:21:43;96584.38;;;13.65;42.24
31595;BME280;18200;48.726;8.892;2022-12-07T13:30:06;96577.22;;;13.29;42.60
31595;BME280;18200;48.726;8.892;2022-12-07T13:34:29;96577.78;;;12.98;43.67
31595;BME280;18200;48.726;8.892;2022-12-07T13:38:31;96579.91;;;13.26;42.61
31595;BME280;18200;48.726;8.892;2022-12-07T13:42:32;96566.41;;;14.12;40.71
31595;BME280;18200;48.726;8.892;2022-12-07T13:50:56;96564.84;;;14.03;41.13
31595;BME280;18200;48.726;8.892;2022-12-07T13:54:58;96565.75;;;14.50;40.18
31595;BME280;18200;48.726;8.892;2022-12-07T13:58:59;96568.84;;;14.76;39.15
31595;BME280;18200;48.726;8.892;2022-12-07T14:03:45;96569.53;;;15.40;38.23
31595;BME280;18200;48.726;8.892;2022-12-07T14:07:21;96559.31;;;15.94;38.09
31595;BME280;18200;48.726;8.892;2022-12-07T14:11:22;96568.72;;;16.95;36.74
31595;BME280;18200;48.726;8.892;2022-12-07T14:15:30;96567.47;;;16.63;36.21
31595;BME280;18200;48.726;8.892;2022-12-07T14:19:41;96564.47;;;16.43;36.85
31595;BME280;18200;48.726;8.892;2022-12-07T14:23:42;96552.63;;;16.16;36.68
31595;BME280;18200;48.726;8.892;2022-12-07T14:27:59;96558.34;;;15.31;38.49
31595;BME280;18200;48.726;8.892;2022-12-07T14:32:11;96557.53;;;15.56;38.52
31595;BME280;18200;48.726;8.892;2022-12-07T14:36:14;96564.16;;;15.19;38.83
31595;BME280;18200;48.726;8.892;2022-12-07T14:40:16;96560.34;;;14.71;39.77
31595;BME280;18200;48.726;8.892;2022-12-07T14:44:17;96566.13;;;15.05;39.70
31595;BME280;18200;48.726;8.892;2022-12-07T14:48:18;96569.50;;;14.21;41.09
31595;BME280;18200;48.726;8.892;2022-12-07T14:52:19;96572.47;;;13.73;42.59
31595;BME280;18200;48.726;8.892;2022-12-07T14:56:20;96569.19;;;12.34;45.64
31595;BME280;18200;48.726;8.892;2022-12-07T15:00:21;96578.97;;;13.00;44.32
31595;BME280;18200;48.726;8.892;2022-12-07T15:04:22;96573.50;;;12.90;45.18
31595;BME280;18200;48.726;8.892;2022-12-07T15:08:22;96575.38;;;13.40;43.77
31595;BME280;18200;48.726;8.892;2022-12-07T15:12:22;96572.16;;;13.17;44.24
31595;BME280;18200;48.726;8.892;2022-12-07T15:16:25;96571.38;;;13.13;44.20
31595;BME280;18200;48.726;8.892;2022-12-07T15:20:25;96582.03;;;12.99;45.06
31595;BME280;18200;48.726;8.892;2022-12-07T15:24:25;96571.50;;;12.36;46.31
31595;BME280;18200;48.726;8.892;2022-12-07T15:28:26;96569.13;;;12.75;46.20
31595;BME280;18200;48.726;8.892;2022-12-07T15:32:26;96571.09;;;13.32;43.94
31595;BME280;18200;48.726;8.892;2022-12-07T15:36:35;96575.81;;;12.95;44.93
31595;BME280;18200;48.726;8.892;2022-12-07T15:40:41;96571.44;;;12.76;45.94
31595;BME280;18200;48.726;8.892;2022-12-07T15:44:41;96574.59;;;12.41;45.79
31595;BME280;18200;48.726;8.892;2022-12-07T15:49:01;96570.69;;;13.30;44.26
31595;BME280;18200;48.726;8.892;2022-12-07T15:53:01;96566.16;;;13.41;43.07
31595;BME280;18200;48.726;8.892;2022-12-07T15:57:02;96565.25;;;14.13;41.34
31595;BME280;18200;48.726;8.892;2022-12-07T16:01:09;96560.19;;;13.93;41.35
31595;BME280;18200;48.726;8.892;2022-12-07T16:05:10;96566.28;;;13.73;42.04
31595;BME280;18200;48.726;8.892;2022-12-07T16:09:10;96562.72;;;12.90;43.40
31595;BME280;18200;48.726;8.892;2022-12-07T16:13:11;96559.38;;;13.07;43.03
31595;BME280;18200;48.726;8.892;2022-12-07T16:17:11;96558.97;;;13.80;41.89
31595;BME280;18200;48.726;8.892;2022-12-07T16:21:12;96555.81;;;12.96;43.06
31595;BME280;18200;48.726;8.892;2022-12-07T16:25:13;96559.84;;;13.23;42.58
31595;BME280;18200;48.726;8.892;2022-12-07T16:29:14;96553.25;;;13.99;41.01
31595;BME280;18200;48.726;8.892;2022-12-07T16:33:14;96555.59;;;12.68;43.24
31595;BME280;18200;48.726;8.892;2022-12-07T16:37:15;96548.22;;;13.12;42.82
31595;BME280;18200;48.726;8.892;2022-12-07T16:41:15;96530.81;;;13.74;41.35
31595;BME280;18200;48.726;8.892;2022-12-07T16:45:15;96534.78;;;14.16;40.28
31595;BME280;18200;48.726;8.892;2022-12-07T16:49:16;96537.09;;;14.14;40.85
31595;BME280;18200;48.726;8.892;2022-12-07T16:53:16;96533.94;;;13.83;41.28
31595;BME280;18200;48.726;8.892;2022-12-07T16:57:17;96528.22;;;14.17;40.90
31595;BME280;18200;48.726;8.892;2022-12-07T17:01:18;96517.78;;;14.12;40.53
31595;BME280;18200;48.726;8.892;2022-12-07T17:05:19;96523.63;;;13.20;42.59
31595;BME280;18200;48.726;8.892;2022-12-07T17:09:19;96518.44;;;13.66;41.89
31595;BME280;18200;48.726;8.892;2022-12-07T17:13:20;96516.25;;;14.18;41.59
31595;BME280;18200;48.726;8.892;2022-12-07T17:17:39;96510.75;;;13.79;41.65
31595;BME280;18200;48.726;8.892;2022-12-07T17:21:40;96508.47;;;13.91;40.91
31595;BME280;18200;48.726;8.892;2022-12-07T17:25:40;96510.81;;;13.96;41.07
31595;BME280;18200;48.726;8.892;2022-12-07T17:29:41;96514.69;;;14.06;40.56
31595;BME280;18200;48.726;8.892;2022-12-07T17:33:42;96511.66;;;14.32;40.08
31595;BME280;18200;48.726;8.892;2022-12-07T17:37:43;96513.53;;;13.96;40.72
31595;BME280;18200;48.726;8.892;2022-12-07T17:41:44;96506.16;;;13.93;40.46
31595;BME280;18200;48.726;8.892;2022-12-07T17:46:09;96506.81;;;13.55;41.07
31595;BME280;18200;48.726;8.892;2022-12-07T17:50:09;96502.25;;;13.63;41.50
31595;BME280;18200;48.726;8.892;2022-12-07T17:54:10;96502.66;;;13.82;41.13
31595;BME280;18200;48.726;8.892;2022-12-07T17:58:11;96500.00;;;13.93;40.90
31595;BME280;18200;48.726;8.892;2022-12-07T18:02:11;96499.94;;;13.72;41.11
31595;BME280;18200;48.726;8.892;2022-12-07T18:06:12;96501.16;;;12.99;42.39
31595;BME280;18200;48.726;8.892;2022-12-07T18:10:12;96493.22;;;12.66;43.23
31595;BME280;18200;48.726;8.892;2022-12-07T18:14:13;96492.50;;;13.37;43.19
31595;BME280;18200;48.726;8.892;2022-12-07T18:18:13;96494.94;;;13.70;41.69
31595;BME280;18200;48.726;8.892;2022-12-07T18:22:13;96489.81;;;13.44;42.51
31595;BME280;18200;48.726;8.892;2022-12-07T18:26:14;96489.09;;;13.54;42.51
31595;BME280;18200;48.726;8.892;2022-12-07T18:30:15;96480.19;;;13.50;41.82
31595;BME280;18200;48.726;8.892;2022-12-07T18:34:16;96481.25;;;13.24;41.76
31595;BME280;18200;48.726;8.892;2022-12-07T18:38:17;96481.31;;;13.35;41.45
31595;BME280;18200;48.726;8.892;2022-12-07T18:42:17;96488.06;;;13.01;41.22
31595;BME280;18200;48.726;8.892;2022-12-07T18:46:18;96490.91;;;12.68;43.01
31595;BME280;18200;48.726;8.892;2022-12-07T18:50:19;96490.03;;;12.53;43.13
31595;BME280;18200;48.726;8.892;2022-12-07T18:54:19;96481.38;;;12.81;42.67
31595;BME280;18200;48.726;8.892;2022-12-07T18:58:20;96489.66;;;13.09;42.54
31595;BME280;18200;48.726;8.892;2022-12-07T19:02:20;96491.06;;;12.34;42.89
31595;BME280;18200;48.726;8.892;2022-12-07T19:06:20;96484.00;;;12.67;42.96
31595;BME280;18200;48.726;8.892;2022-12-07T19:10:21;96489.84;;;12.79;42.63
31595;BME280;18200;48.726;8.892;2022-12-07T19:14:26;96485.91;;;12.63;43.39
31595;BME280;18200;48.726;8.892;2022-12-07T19:18:26;96485.81;;;12.05;43.79
31595;BME280;18200;48.726;8.892;2022-12-07T19:22:27;96489.91;;;12.35;43.15
31595;BME280;18200;48.726;8.892;2022-12-07T19:26:27;96486.06;;;12.36;43.74
31595;BME280;18200;48.726;8.892;2022-12-07T19:30:28;96473.22;;;12.67;42.29
31595;BME280;18200;48.726;8.892;2022-12-07T19:34:29;96480.28;;;12.34;42.65
31595;BME280;18200;48.726;8.892;2022-12-07T19:38:32;96468.88;;;12.52;42.94
31595;BME280;18200;48.726;8.892;2022-12-07T19:42:32;96471.19;;;12.53;42.58
31595;BME280;18200;48.726;8.892;2022-12-07T19:46:34;96474.09;;;12.85;42.02
31595;BME280;18200;48.726;8.892;2022-12-07T19:50:35;96475.78;;;13.07;41.62
31595;BME280;18200;48.726;8.892;2022-12-07T19:54:35;96458.91;;;13.24;41.52
31595;BME280;18200;48.726;8.892;2022-12-07T19:58:36;96454.31;;;13.28;41.58
31595;BME280;18200;48.726;8.892;2022-12-07T20:02:36;96452.34;;;13.18;41.35
31595;BME280;18200;48.726;8.892;2022-12-07T20:06:36;96455.09;;;13.29;41.51
31595;BME280;18200;48.726;8.892;2022-12-07T20:10:37;96457.41;;;13.34;41.54
31595;BME280;18200;48.726;8.892;2022-12-07T20:14:38;96444.34;;;13.39;40.74
31595;BME280;18200;48.726;8.892;2022-12-07T20:18:42;96443.47;;;13.17;41.43
31595;BME280;18200;48.726;8.892;2022-12-07T20:22:43;96439.75;;;12.71;42.18
31595;BME280;18200;48.726;8.892;2022-12-07T20:26:45;96437.25;;;13.10;42.40
31595;BME280;18200;48.726;8.892;2022-12-07T20:30:52;96429.59;;;13.19;40.96
31595;BME280;18200;48.726;8.892;2022-12-07T20:34:57;96432.91;;;12.26;43.17
31595;BME280;18200;48.726;8.892;2022-12-07T20:38:59;96425.84;;;12.66;42.20
31595;BME280;18200;48.726;8.892;2022-12-07T20:43:04;96420.25;;;13.02;42.29
31595;BME280;18200;48.726;8.892;2022-12-07T20:51:15;96412.69;;;13.29;41.49
31595;BME280;18200;48.726;8.892;2022-12-07T20:55:16;96415.75;;;13.31;41.83
31595;BME280;18200;48.726;8.892;2022-12-07T20:59:16;96418.00;;;13.08;41.65
31595;BME280;18200;48.726;8.892;2022-12-07T21:03:16;96420.91;;;12.20;42.79
31595;BME280;18200;48.726;8.892;2022-12-07T21:07:17;96408.22;;;12.82;42.36
31595;BME280;18200;48.726;8.892;2022-12-07T21:11:17;96409.00;;;12.83;41.94
31595;BME280;18200;48.726;8.892;2022-12-07T21:15:18;96398.69;;;12.99;41.85
31595;BME280;18200;48.726;8.892;2022-12-07T21:19:18;96398.78;;;13.20;41.88
31595;BME280;18200;48.726;8.892;2022-12-07T21:23:19;96389.63;;;12.56;43.06
31595;BME280;18200;48.726;8.892;2022-12-07T21:27:19;96395.59;;;13.04;41.98
31595;BME280;18200;48.726;8.892;2022-12-07T21:31:19;96394.91;;;13.10;42.06
31595;BME280;18200;48.726;8.892;2022-12-07T21:35:20;96383.16;;;12.75;41.33
31595;BME280;18200;48.726;8.892;2022-12-07T21:39:20;96387.88;;;12.95;41.91
31595;BME280;18200;48.726;8.892;2022-12-07T21:43:20;96384.72;;;12.83;41.09
31595;BME280;18200;48.726;8.892;2022-12-07T21:47:21;96387.88;;;12.92;41.71
31595;BME280;18200;48.726;8.892;2022-12-07T21:51:22;96379.44;;;13.04;41.65
31595;BME280;18200;48.726;8.892;2022-12-07T21:55:22;96381.53;;;12.60;41.29
31595;BME280;18200;48.726;8.892;2022-12-07T21:59:23;96384.13;;;12.38;41.86
31595;BME280;18200;48.726;8.892;2022-12-07T22:03:23;96389.34;;;12.79;41.92
31595;BME280;18200;48.726;8.892;2022-12-07T22:07:23;96383.59;;;12.84;41.21
31595;BME280;18200;48.726;8.892;2022-12-07T22:11:23;96384.16;;;11.91;42.05
31595;BME280;18200;48.726;8.892;2022-12-07T22:15:24;96386.25;;;11.68;43.50
31595;BME280;18200;48.726;8.892;2022-12-07T22:19:25;96382.91;;;12.32;42.54
31595;BME280;18200;48.726;8.892;2022-12-07T22:23:25;96376.41;;;12.37;41.49
31595;BME280;18200;48.726;8.892;2022-12-07T22:27:25;96369.19;;;12.52;42.01
31595;BME280;18200;48.726;8.892;2022-12-07T22:31:26;96369.25;;;12.62;41.45
31595;BME280;18200;48.726;8.892;2022-12-07T22:35:26;96373.28;;;12.31;41.06
31595;BME280;18200;48.726;8.892;2022-12-07T22:39:27;96379.06;;;12.33;42.05
31595;BME280;18200;48.726;8.892;2022-12-07T22:43:27;96376.69;;;12.25;41.78
31595;BME280;18200;48.726;8.892;2022-12-07T22:47:27;96379.75;;;12.20;41.76
31595;BME280;18200;48.726;8.892;2022-12-07T22:51:32;96375.91;;;12.17;41.89
31595;BME280;18200;48.726;8.892;2022-12-07T22:55:32;96374.31;;;12.09;41.41
31595;BME280;18200;48.726;8.892;2022-12-07T22:59:37;96369.81;;;11.40;42.24
31595;BME280;18200;48.726;8.892;2022-12-07T23:03:37;96366.41;;;11.87;42.90
31595;BME280;18200;48.726;8.892;2022-12-07T23:07:37;96359.50;;;11.86;41.99